createdAt,value
2023-04-01T00:01:53.502Z,99779.88
2023-04-01T00:04:22.294Z,99782.88
2023-04-01T00:06:50.658Z,99787.50
2023-04-01T00:09:19.866Z,99786.94
2023-04-01T00:11:49.424Z,99772.00
2023-04-01T00:14:17.553Z,99770.63
2023-04-01T00:16:46.152Z,99778.94
2023-04-01T00:19:14.347Z,99782.06
2023-04-01T00:21:42.469Z,99776.50
2023-04-01T00:24:10.610Z,99780.41
2023-04-01T00:26:38.744Z,99777.34
2023-04-01T00:29:08.276Z,99777.72
2023-04-01T00:31:37.257Z,99780.13
2023-04-01T00:34:05.355Z,99779.75
2023-04-01T00:36:33.466Z,99778.72
2023-04-01T00:39:04.658Z,99786.78
2023-04-01T00:41:32.792Z,99786.19
2023-04-01T00:44:21.965Z,99783.84
2023-04-01T00:46:50.804Z,99784.19
2023-04-01T00:49:21.082Z,99780.16
2023-04-01T00:51:52.417Z,99783.38
2023-04-01T00:54:22.805Z,99782.06
2023-04-01T00:56:57.010Z,99795.81
2023-04-01T00:59:29.807Z,99796.41
2023-04-01T01:02:00.534Z,99792.84
2023-04-01T01:04:30.467Z,99794.97
2023-04-01T01:07:10.549Z,99792.81
2023-04-01T01:09:49.169Z,99794.97
2023-04-01T01:12:21.976Z,99793.53
2023-04-01T01:15:04.939Z,99796.38
2023-04-01T01:17:46.321Z,99791.38
2023-04-01T01:20:35.312Z,99794.69
2023-04-01T01:23:48.932Z,99797.91
2023-04-01T01:26:34.722Z,99792.22
2023-04-01T01:29:15.122Z,99795.94
2023-04-01T01:31:53.273Z,99801.38
2023-04-01T01:34:27.242Z,99800.09
2023-04-01T01:37:00.628Z,99807.31
2023-04-01T01:39:32.791Z,99805.91
2023-04-01T01:42:05.386Z,99799.38
2023-04-01T01:44:39.919Z,99804.13
2023-04-01T01:47:08.391Z,99806.34
2023-04-01T01:49:39.088Z,99799.84
2023-04-01T01:52:09.081Z,99811.72
2023-04-01T01:54:37.167Z,99801.84
2023-04-01T01:57:10.961Z,99803.38
2023-04-01T01:59:42.331Z,99800.53
2023-04-01T02:02:19.451Z,99806.59
2023-04-01T02:04:48.967Z,99812.66
2023-04-01T02:07:23.486Z,99815.13
2023-04-01T02:09:52.875Z,99819.53
2023-04-01T02:12:23.772Z,99814.31
2023-04-01T02:14:55.891Z,99823.91
2023-04-01T02:17:28.857Z,99820.34
2023-04-01T02:20:01.390Z,99823.91
2023-04-01T02:22:33.714Z,99818.69
2023-04-01T02:25:08.060Z,99823.31
2023-04-01T02:27:36.843Z,99823.81
2023-04-01T02:30:05.987Z,99822.72
2023-04-01T02:32:38.985Z,99820.84
2023-04-01T02:35:08.572Z,99830.06
2023-04-01T02:37:40.431Z,99825.56
2023-04-01T02:40:11.152Z,99830.88
2023-04-01T02:42:39.374Z,99833.59
2023-04-01T02:45:11.098Z,99840.44
2023-04-01T02:47:39.246Z,99831.78
2023-04-01T02:50:08.990Z,99838.47
2023-04-01T02:52:38.763Z,99840.00
2023-04-01T02:55:08.020Z,99836.06
2023-04-01T02:57:36.521Z,99840.78
2023-04-01T03:00:05.782Z,99840.28
2023-04-01T03:02:34.316Z,99839.81
2023-04-01T03:05:02.456Z,99841.00
2023-04-01T03:07:32.187Z,99838.94
2023-04-01T03:10:01.738Z,99848.75
2023-04-01T03:12:29.801Z,99846.78
2023-04-01T03:14:57.912Z,99849.94
2023-04-01T03:17:38.739Z,99854.88
2023-04-01T03:20:09.573Z,99847.81
2023-04-01T03:22:37.716Z,99853.47
2023-04-01T03:25:08.889Z,99853.69
2023-04-01T03:27:40.350Z,99859.59
2023-04-01T03:30:10.650Z,99860.13
2023-04-01T03:32:38.897Z,99869.03
2023-04-01T03:35:08.240Z,99872.75
2023-04-01T03:37:36.492Z,99872.81
2023-04-01T03:40:07.500Z,99878.22
2023-04-01T03:42:36.323Z,99883.38
2023-04-01T03:45:05.331Z,99880.69
2023-04-01T03:47:34.962Z,99889.75
2023-04-01T03:50:05.401Z,99884.25
2023-04-01T03:52:33.690Z,99892.69
2023-04-01T03:55:01.879Z,99891.91
2023-04-01T03:57:33.470Z,99902.59
2023-04-01T04:00:01.632Z,99892.63
2023-04-01T04:02:29.854Z,99901.91
2023-04-01T04:04:58.136Z,99905.13
2023-04-01T04:07:26.324Z,99909.97
2023-04-01T04:09:54.568Z,99920.19
2023-04-01T04:12:22.730Z,99907.84
2023-04-01T04:14:52.350Z,99915.44
2023-04-01T04:17:20.483Z,99922.22
2023-04-01T04:19:48.733Z,99920.31
2023-04-01T04:22:16.951Z,99927.06
2023-04-01T04:24:45.259Z,99928.72
2023-04-01T04:27:13.804Z,99930.28
2023-04-01T04:29:42.183Z,99929.34
2023-04-01T04:32:12.139Z,99927.69
2023-04-01T04:34:40.583Z,99929.44
2023-04-01T04:37:08.810Z,99940.84
2023-04-01T04:39:37.023Z,99930.41
2023-04-01T04:42:05.454Z,99932.78
2023-04-01T04:44:33.681Z,99931.00
2023-04-01T04:47:02.526Z,99941.91
2023-04-01T04:49:32.350Z,99940.84
2023-04-01T04:52:00.500Z,99937.06
2023-04-01T04:54:28.738Z,99958.28
2023-04-01T04:56:57.035Z,99940.50
2023-04-01T04:59:25.319Z,99942.66
2023-04-01T05:01:53.574Z,99950.00
2023-04-01T05:04:21.667Z,99952.28
2023-04-01T05:06:53.018Z,99950.94
2023-04-01T05:09:21.224Z,99960.09
2023-04-01T05:11:49.343Z,99955.25
2023-04-01T05:14:18.191Z,99957.38
2023-04-01T05:16:46.345Z,99962.94
2023-04-01T05:19:14.604Z,99961.63
2023-04-01T05:21:42.823Z,99965.44
2023-04-01T05:24:12.535Z,99970.88
2023-04-01T05:26:40.600Z,99974.78
2023-04-01T05:29:08.731Z,99975.00
2023-04-01T05:31:37.008Z,99977.81
2023-04-01T05:34:05.115Z,99984.94
2023-04-01T05:36:33.372Z,99994.66
2023-04-01T05:39:01.548Z,99989.41
2023-04-01T05:41:31.445Z,99992.91
2023-04-01T05:43:59.913Z,99995.53
2023-04-01T05:46:29.314Z,99995.47
2023-04-01T05:48:57.546Z,99995.53
2023-04-01T05:51:27.680Z,100003.56
2023-04-01T05:53:55.787Z,100006.16
2023-04-01T05:56:24.293Z,100006.09
2023-04-01T05:58:56.707Z,100007.81
2023-04-01T06:01:24.952Z,100009.50
2023-04-01T06:03:53.357Z,100010.38
2023-04-01T06:06:26.719Z,100009.75
2023-04-01T06:08:55.303Z,100014.91
2023-04-01T06:11:34.384Z,100019.22
2023-04-01T06:14:17.997Z,100024.25
2023-04-01T06:16:59.413Z,100020.44
2023-04-01T06:19:38.479Z,100021.97
2023-04-01T06:22:38.755Z,100031.25
2023-04-01T06:25:39.782Z,100019.13
2023-04-01T06:28:33.537Z,100027.31
2023-04-01T06:31:09.116Z,100024.56
2023-04-01T06:33:57.878Z,100038.09
2023-04-01T06:36:44.565Z,100036.56
2023-04-01T06:39:27.368Z,100033.81
2023-04-01T06:42:32.009Z,100040.88
2023-04-01T06:45:15.466Z,100035.66
2023-04-01T06:48:00.911Z,100036.75
2023-04-01T06:50:32.554Z,100038.53
2023-04-01T06:53:09.445Z,100039.78
2023-04-01T06:55:43.488Z,100039.09
2023-04-01T06:58:31.638Z,100042.81
2023-04-01T07:01:03.127Z,100047.66
2023-04-01T07:03:36.470Z,100048.19
2023-04-01T07:06:07.214Z,100052.44
2023-04-01T07:08:38.599Z,100046.31
2023-04-01T07:11:09.090Z,100050.06
2023-04-01T07:13:43.624Z,100055.53
2023-04-01T07:16:17.752Z,100064.09
2023-04-01T07:18:52.375Z,100051.59
2023-04-01T07:21:27.938Z,100062.66
2023-04-01T07:23:59.514Z,100060.44
2023-04-01T07:26:30.960Z,100071.59
2023-04-01T07:28:59.322Z,100063.22
2023-04-01T07:31:53.504Z,100080.47
2023-04-01T07:34:27.949Z,100071.97
2023-04-01T07:37:03.514Z,100073.06
2023-04-01T07:39:41.845Z,100074.38
2023-04-01T07:42:18.785Z,100080.31
2023-04-01T07:44:57.193Z,100078.72
2023-04-01T07:47:46.428Z,100083.78
2023-04-01T07:50:28.144Z,100087.31
2023-04-01T07:53:05.162Z,100091.69
2023-04-01T07:55:42.343Z,100098.34
2023-04-01T07:58:19.766Z,100094.47
2023-04-01T08:00:55.493Z,100101.53
2023-04-01T08:03:40.998Z,100104.31
2023-04-01T08:06:18.464Z,100098.59
2023-04-01T08:08:57.420Z,100095.44
2023-04-01T08:11:38.693Z,100114.56
2023-04-01T08:14:16.544Z,100120.03
2023-04-01T08:16:54.584Z,100122.69
2023-04-01T08:19:34.206Z,100123.00
2023-04-01T08:22:12.096Z,100133.03
2023-04-01T08:24:48.013Z,100135.28
2023-04-01T08:27:24.685Z,100147.75
2023-04-01T08:29:58.345Z,100127.47
2023-04-01T08:32:35.064Z,100137.84
2023-04-01T08:35:13.239Z,100139.50
2023-04-01T08:37:44.256Z,100149.31
2023-04-01T08:41:01.976Z,100140.03
2023-04-01T08:44:15.407Z,100146.25
2023-04-01T08:47:15.902Z,100153.03
2023-04-01T08:50:25.831Z,100156.34
2023-04-01T08:53:04.767Z,100160.56
2023-04-01T08:55:46.287Z,100165.28
2023-04-01T08:58:46.693Z,100174.41
2023-04-01T09:01:27.412Z,100175.78
2023-04-01T09:04:21.346Z,100182.66
2023-04-01T09:07:13.736Z,100180.91
2023-04-01T09:10:23.406Z,100178.19
2023-04-01T09:13:11.055Z,100181.69
2023-04-01T09:16:11.079Z,100177.50
2023-04-01T09:19:09.936Z,100182.22
2023-04-01T09:22:01.914Z,100179.38
2023-04-01T09:25:17.775Z,100190.56
2023-04-01T09:27:51.685Z,100212.19
2023-04-01T09:30:52.301Z,100195.22
2023-04-01T09:33:59.916Z,100193.72
2023-04-01T09:36:44.265Z,100215.72
2023-04-01T09:39:34.941Z,100208.16
2023-04-01T09:42:18.398Z,100191.88
2023-04-01T09:44:56.914Z,100211.13
2023-04-01T09:47:45.887Z,100213.28
2023-04-01T09:50:41.522Z,100228.38
2023-04-01T09:53:22.369Z,100219.13
2023-04-01T09:56:28.453Z,100226.56
2023-04-01T09:59:32.120Z,100223.25
2023-04-01T10:02:40.249Z,100217.06
2023-04-01T10:05:44.583Z,100225.16
2023-04-01T10:08:53.305Z,100232.25
2023-04-01T10:11:51.154Z,100239.59
2023-04-01T10:14:48.282Z,100240.28
2023-04-01T10:18:12.179Z,100238.63
2023-04-01T10:20:57.205Z,100240.44
2023-04-01T10:23:59.055Z,100236.00
2023-04-01T10:26:44.519Z,100227.25
2023-04-01T10:29:53.683Z,100236.53
2023-04-01T10:33:00.892Z,100242.50
2023-04-01T10:36:02.172Z,100248.63
2023-04-01T10:39:04.065Z,100240.50
2023-04-01T10:42:10.730Z,100245.31
2023-04-01T10:45:11.573Z,100249.78
2023-04-01T10:48:14.511Z,100253.78
2023-04-01T10:51:30.621Z,100265.03
2023-04-01T10:54:40.901Z,100254.75
2023-04-01T10:57:22.017Z,100259.38
2023-04-01T11:00:34.855Z,100257.75
2023-04-01T11:03:51.553Z,100243.16
2023-04-01T11:07:01.655Z,100265.66
2023-04-01T11:10:01.019Z,100246.78
2023-04-01T11:13:17.551Z,100259.03
2023-04-01T11:16:19.709Z,100261.03
2023-04-01T11:19:17.939Z,100267.69
2023-04-01T11:22:26.521Z,100276.59
2023-04-01T11:25:33.462Z,100274.94
2023-04-01T11:28:25.214Z,100284.56
2023-04-01T11:31:10.158Z,100292.13
2023-04-01T11:33:45.625Z,100288.31
2023-04-01T11:36:36.359Z,100288.50
2023-04-01T11:39:26.924Z,100305.84
2023-04-01T11:42:11.812Z,100296.44
2023-04-01T11:44:46.720Z,100305.84
2023-04-01T11:47:30.857Z,100298.72
2023-04-01T11:50:22.746Z,100301.06
2023-04-01T11:53:19.509Z,100303.69
2023-04-01T11:55:59.018Z,100306.81
2023-04-01T11:58:47.588Z,100305.13
2023-04-01T12:01:22.870Z,100308.59
2023-04-01T12:04:09.495Z,100293.38
2023-04-01T12:06:47.401Z,100308.97
2023-04-01T12:09:23.792Z,100302.19
2023-04-01T12:12:05.539Z,100310.97
2023-04-01T12:14:44.363Z,100299.38
2023-04-01T12:17:36.749Z,100311.63
2023-04-01T12:20:26.966Z,100302.50
2023-04-01T12:23:06.303Z,100306.78
2023-04-01T12:26:07.733Z,100308.56
2023-04-01T12:28:48.198Z,100314.53
2023-04-01T12:31:37.919Z,100318.31
2023-04-01T12:34:26.404Z,100325.44
2023-04-01T12:37:06.510Z,100312.88
2023-04-01T12:39:57.732Z,100317.19
2023-04-01T12:42:51.540Z,100311.84
2023-04-01T12:45:32.468Z,100319.41
2023-04-01T12:48:27.070Z,100323.69
2023-04-01T12:51:15.163Z,100319.31
2023-04-01T12:54:01.195Z,100333.41
2023-04-01T12:56:47.317Z,100317.19
2023-04-01T12:59:35.424Z,100355.06
2023-04-01T13:02:17.444Z,100331.16
2023-04-01T13:05:16.697Z,100347.91
2023-04-01T13:08:09.710Z,100351.41
2023-04-01T13:10:54.418Z,100334.97
2023-04-01T13:13:50.358Z,100342.53
2023-04-01T13:16:26.617Z,100348.00
2023-04-01T13:19:02.961Z,100349.66
2023-04-01T13:21:43.511Z,100359.63
2023-04-01T13:24:23.059Z,100361.94
2023-04-01T13:26:58.887Z,100354.75
2023-04-01T13:29:33.876Z,100352.69
2023-04-01T13:32:22.263Z,100369.84
2023-04-01T13:35:23.332Z,100362.72
2023-04-01T13:38:08.136Z,100365.56
2023-04-01T13:40:52.363Z,100371.41
2023-04-01T13:43:33.713Z,100375.91
2023-04-01T13:46:32.851Z,100372.41
2023-04-01T13:49:28.779Z,100384.16
2023-04-01T13:52:27.956Z,100376.97
2023-04-01T13:55:08.550Z,100383.25
2023-04-01T13:57:50.760Z,100378.06
2023-04-01T14:00:32.248Z,100382.50
2023-04-01T14:03:31.438Z,100378.16
2023-04-01T14:06:14.019Z,100379.78
2023-04-01T14:08:57.366Z,100379.31
2023-04-01T14:11:36.740Z,100378.78
2023-04-01T14:14:17.186Z,100381.56
2023-04-01T14:17:18.043Z,100385.91
2023-04-01T14:20:15.709Z,100386.28
2023-04-01T14:22:55.667Z,100386.28
2023-04-01T14:25:48.851Z,100400.88
2023-04-01T14:28:27.537Z,100403.06
2023-04-01T14:31:11.600Z,100397.38
2023-04-01T14:33:48.429Z,100390.41
2023-04-01T14:36:40.785Z,100402.06
2023-04-01T14:39:32.027Z,100404.34
2023-04-01T14:42:21.904Z,100403.19
2023-04-01T14:45:11.587Z,100404.00
2023-04-01T14:47:49.620Z,100416.13
2023-04-01T14:50:22.136Z,100413.94
2023-04-01T14:52:59.342Z,100413.41
2023-04-01T14:55:36.523Z,100405.09
2023-04-01T14:58:13.280Z,100418.69
2023-04-01T15:00:51.048Z,100420.03
2023-04-01T15:03:27.435Z,100412.19
2023-04-01T15:06:17.271Z,100410.16
2023-04-01T15:08:54.171Z,100418.78
2023-04-01T15:11:35.072Z,100427.94
2023-04-01T15:14:41.805Z,100429.31
2023-04-01T15:17:30.326Z,100422.69
2023-04-01T15:20:27.155Z,100425.53
2023-04-01T15:23:21.752Z,100437.16
2023-04-01T15:26:09.078Z,100441.97
2023-04-01T15:28:49.139Z,100435.56
2023-04-01T15:31:21.537Z,100452.03
2023-04-01T15:34:02.634Z,100451.25
2023-04-01T15:36:41.680Z,100445.28
2023-04-01T15:39:17.890Z,100451.25
2023-04-01T15:42:12.523Z,100456.94
2023-04-01T15:45:03.687Z,100448.53
2023-04-01T15:47:38.947Z,100451.53
2023-04-01T15:50:36.035Z,100452.84
2023-04-01T15:53:19.975Z,100461.56
2023-04-01T15:55:52.731Z,100455.28
2023-04-01T15:58:35.937Z,100460.25
2023-04-01T16:01:18.861Z,100462.41
2023-04-01T16:03:56.705Z,100470.13
2023-04-01T16:06:55.646Z,100469.34
2023-04-01T16:09:42.036Z,100476.56
2023-04-01T16:12:18.490Z,100469.34
2023-04-01T16:14:59.038Z,100478.84
2023-04-01T16:17:45.596Z,100473.66
2023-04-01T16:20:22.245Z,100489.28
2023-04-01T16:22:59.387Z,100488.75
2023-04-01T16:25:36.236Z,100485.72
2023-04-01T16:28:24.428Z,100494.34
2023-04-01T16:31:19.084Z,100497.91
2023-04-01T16:33:53.391Z,100494.88
2023-04-01T16:36:30.752Z,100504.25
2023-04-01T16:39:14.075Z,100507.81
2023-04-01T16:41:51.550Z,100512.41
2023-04-01T16:44:24.861Z,100511.19
2023-04-01T16:47:21.400Z,100521.25
2023-04-01T16:49:57.008Z,100524.78
2023-04-01T16:52:54.417Z,100525.53
2023-04-01T16:55:26.673Z,100535.13
2023-04-01T16:58:00.227Z,100536.81
2023-04-01T17:00:31.189Z,100531.91
2023-04-01T17:03:22.959Z,100548.47
2023-04-01T17:06:03.876Z,100549.56
2023-04-01T17:08:49.643Z,100550.63
2023-04-01T17:11:23.946Z,100549.19
2023-04-01T17:14:00.555Z,100560.00
2023-04-01T17:16:52.017Z,100563.28
2023-04-01T17:19:32.588Z,100563.47
2023-04-01T17:22:11.602Z,100572.28
2023-04-01T17:24:51.319Z,100582.88
2023-04-01T17:27:29.364Z,100588.31
2023-04-01T17:30:13.197Z,100586.28
2023-04-01T17:32:58.129Z,100594.88
2023-04-01T17:35:32.461Z,100596.16
2023-04-01T17:38:15.533Z,100604.41
2023-04-01T17:40:59.869Z,100605.53
2023-04-01T17:43:41.545Z,100610.13
2023-04-01T17:46:30.263Z,100609.59
2023-04-01T17:49:13.234Z,100616.47
2023-04-01T17:51:46.982Z,100620.75
2023-04-01T17:54:26.632Z,100619.84
2023-04-01T17:57:17.185Z,100626.09
2023-04-01T18:00:00.811Z,100634.00
2023-04-01T18:02:42.244Z,100639.06
2023-04-01T18:05:29.254Z,100644.16
2023-04-01T18:08:10.080Z,100645.56
2023-04-01T18:10:50.126Z,100652.31
2023-04-01T18:13:39.739Z,100655.44
2023-04-01T18:16:30.830Z,100661.31
2023-04-01T18:19:11.745Z,100666.06
2023-04-01T18:21:47.866Z,100667.53
2023-04-01T18:24:30.088Z,100674.09
2023-04-01T18:27:08.229Z,100672.06
2023-04-01T18:29:43.220Z,100687.38
2023-04-01T18:32:20.006Z,100686.31
2023-04-01T18:35:00.379Z,100693.19
2023-04-01T18:37:34.228Z,100696.25
2023-04-01T18:40:14.894Z,100692.56
2023-04-01T18:42:55.490Z,100702.59
2023-04-01T18:45:31.094Z,100705.13
2023-04-01T18:48:11.418Z,100715.16
2023-04-01T18:50:46.062Z,100721.84
2023-04-01T18:53:25.287Z,100723.16
2023-04-01T18:55:57.753Z,100726.22
2023-04-01T18:58:35.034Z,100730.13
2023-04-01T19:01:14.900Z,100727.09
2023-04-01T19:04:08.011Z,100735.44
2023-04-01T19:06:43.181Z,100748.22
2023-04-01T19:09:24.039Z,100741.88
2023-04-01T19:12:18.380Z,100753.53
2023-04-01T19:14:56.400Z,100754.28
2023-04-01T19:17:41.051Z,100756.34
2023-04-01T19:20:20.093Z,100764.00
2023-04-01T19:23:20.455Z,100761.66
2023-04-01T19:25:53.396Z,100773.59
2023-04-01T19:28:37.327Z,100779.28
2023-04-01T19:31:18.282Z,100785.00
2023-04-01T19:34:06.016Z,100792.50
2023-04-01T19:36:47.524Z,100802.78
2023-04-01T19:39:34.170Z,100806.25
2023-04-01T19:42:09.629Z,100797.22
2023-04-01T19:44:49.217Z,100806.63
2023-04-01T19:47:26.876Z,100807.91
2023-04-01T19:50:06.615Z,100811.06
2023-04-01T19:52:38.606Z,100825.53
2023-04-01T19:55:20.797Z,100828.44
2023-04-01T19:57:55.115Z,100831.47
2023-04-01T20:00:28.809Z,100835.31
2023-04-01T20:03:05.814Z,100843.66
2023-04-01T20:05:44.700Z,100845.59
2023-04-01T20:08:22.845Z,100853.88
2023-04-01T20:11:00.724Z,100848.06
2023-04-01T20:13:41.544Z,100849.28
2023-04-01T20:16:11.989Z,100854.13
2023-04-01T20:18:53.060Z,100851.72
2023-04-01T20:21:31.263Z,100862.00
2023-04-01T20:24:04.067Z,100868.59
2023-04-01T20:26:36.358Z,100858.72
2023-04-01T20:29:24.655Z,100864.72
2023-04-01T20:32:07.369Z,100870.34
2023-04-01T20:35:16.513Z,100873.25
2023-04-01T20:37:53.893Z,100870.91
2023-04-01T20:40:38.068Z,100883.38
2023-04-01T20:43:25.794Z,100874.88
2023-04-01T20:45:59.636Z,100881.22
2023-04-01T20:48:58.132Z,100889.25
2023-04-01T20:51:31.791Z,100893.25
2023-04-01T20:54:17.671Z,100896.84
2023-04-01T20:57:05.805Z,100898.91
2023-04-01T20:59:48.038Z,100902.75
2023-04-01T21:02:33.911Z,100904.81
2023-04-01T21:05:46.749Z,100912.84
2023-04-01T21:08:27.552Z,100918.13
2023-04-01T21:11:06.473Z,100923.50
2023-04-01T21:13:47.836Z,100925.53
2023-04-01T21:16:34.762Z,100925.66
2023-04-01T21:19:11.726Z,100919.56
2023-04-01T21:21:55.802Z,100927.59
2023-04-01T21:25:04.686Z,100924.28
2023-04-01T21:28:03.785Z,100926.06
2023-04-01T21:30:45.579Z,100929.53
2023-04-01T21:33:34.653Z,100940.31
2023-04-01T21:36:10.844Z,100941.28
2023-04-01T21:38:58.337Z,100941.53
2023-04-01T21:41:55.394Z,100934.69
2023-04-01T21:44:45.391Z,100949.78
2023-04-01T21:48:04.162Z,100943.13
2023-04-01T21:50:46.238Z,100952.94
2023-04-01T21:53:58.562Z,100964.66
2023-04-01T21:57:03.476Z,100964.06
2023-04-01T21:59:54.544Z,100962.53
2023-04-01T22:02:56.232Z,100967.19
2023-04-01T22:05:31.493Z,100970.19
2023-04-01T22:08:08.730Z,100973.78
2023-04-01T22:10:43.668Z,100975.84
2023-04-01T22:13:20.509Z,100971.53
2023-04-01T22:16:02.280Z,100976.19
2023-04-01T22:18:36.257Z,100985.28
2023-04-01T22:21:11.435Z,100982.19
2023-04-01T22:23:49.243Z,100993.69
2023-04-01T22:26:21.835Z,100996.53
2023-04-01T22:29:01.556Z,101000.25
2023-04-01T22:31:40.099Z,101000.47
2023-04-01T22:34:15.648Z,101006.00
2023-04-01T22:36:53.496Z,101007.31
2023-04-01T22:39:53.725Z,101006.81
2023-04-01T22:42:40.986Z,101008.88
2023-04-01T22:45:47.397Z,101017.09
2023-04-01T22:48:23.846Z,101022.59
2023-04-01T22:50:57.430Z,101026.41
2023-04-01T22:53:37.787Z,101029.41
2023-04-01T22:56:12.265Z,101031.19
2023-04-01T22:58:44.803Z,101036.56
2023-04-01T23:01:18.460Z,101037.63
2023-04-01T23:03:51.393Z,101039.53
2023-04-01T23:06:24.216Z,101040.63
2023-04-01T23:09:15.483Z,101048.63
2023-04-01T23:11:49.484Z,101043.72
2023-04-01T23:14:52.036Z,101049.19
2023-04-01T23:17:35.997Z,101056.47
2023-04-01T23:20:16.292Z,101059.56
2023-04-01T23:22:57.107Z,101070.41
2023-04-01T23:25:40.549Z,101064.69
2023-04-01T23:28:31.820Z,101074.69
2023-04-01T23:31:00.117Z,101069.63
2023-04-01T23:33:35.726Z,101083.00
2023-04-01T23:36:15.380Z,101085.03
2023-04-01T23:38:49.121Z,101087.25
2023-04-01T23:41:22.651Z,101095.03
2023-04-01T23:43:57.635Z,101089.16
2023-04-01T23:46:35.650Z,101097.97
2023-04-01T23:49:08.446Z,101089.50
2023-04-01T23:51:40.527Z,101095.72
2023-04-01T23:54:19.285Z,101102.00
2023-04-01T23:56:50.502Z,101101.28
2023-04-01T23:59:20.811Z,101111.91
